createdAt,value
2023-01-23T00:01:16.214Z,2.90
2023-01-23T00:03:43.468Z,2.90
2023-01-23T00:06:15.216Z,2.90
2023-01-23T00:08:45.653Z,2.90
2023-01-23T00:11:15.105Z,2.90
2023-01-23T00:13:41.936Z,2.90
2023-01-23T00:16:14.876Z,3.00
2023-01-23T00:18:42.262Z,2.90
2023-01-23T00:21:17.476Z,2.90
2023-01-23T00:23:46.322Z,2.90
2023-01-23T00:26:16.572Z,2.90
2023-01-23T00:28:46.401Z,2.90
2023-01-23T00:31:39.028Z,2.90
2023-01-23T00:34:10.489Z,2.90
2023-01-23T00:36:39.333Z,3.00
2023-01-23T00:39:09.217Z,2.90
2023-01-23T00:41:36.249Z,2.90
2023-01-23T00:44:04.442Z,2.90
2023-01-23T00:46:31.352Z,2.90
2023-01-23T00:48:58.213Z,2.90
2023-01-23T00:51:25.598Z,2.90
2023-01-23T00:53:55.106Z,2.90
2023-01-23T00:56:24.491Z,2.90
2023-01-23T00:58:51.433Z,2.90
2023-01-23T01:01:18.878Z,3.00
2023-01-23T01:03:46.337Z,3.00
2023-01-23T01:06:13.415Z,3.00
2023-01-23T01:08:40.380Z,3.00
2023-01-23T01:11:07.793Z,3.00
2023-01-23T01:13:35.192Z,3.00
2023-01-23T01:16:02.289Z,3.00
2023-01-23T01:18:29.933Z,3.00
2023-01-23T01:20:57.727Z,3.00
2023-01-23T01:23:24.491Z,3.00
2023-01-23T01:25:51.913Z,3.00
2023-01-23T01:28:21.177Z,3.00
2023-01-23T01:30:47.934Z,3.00
2023-01-23T01:33:15.133Z,3.00
2023-01-23T01:35:42.274Z,3.00
2023-01-23T01:38:09.342Z,3.00
2023-01-23T01:40:37.777Z,2.90
2023-01-23T01:43:08.688Z,3.00
2023-01-23T01:46:10.763Z,3.00
2023-01-23T01:48:43.831Z,3.00
2023-01-23T01:51:19.155Z,3.00
2023-01-23T01:53:54.481Z,3.00
2023-01-23T01:56:21.649Z,3.00
2023-01-23T01:58:52.149Z,3.00
2023-01-23T02:01:19.368Z,3.00
2023-01-23T02:03:46.905Z,3.00
2023-01-23T02:06:14.005Z,3.00
2023-01-23T02:08:44.560Z,3.00
2023-01-23T02:11:11.831Z,3.00
2023-01-23T02:13:42.996Z,3.00
2023-01-23T02:16:11.519Z,3.00
2023-01-23T02:18:44.497Z,3.00
2023-01-23T02:21:13.178Z,3.00
2023-01-23T02:23:56.889Z,3.00
2023-01-23T02:26:32.898Z,3.00
2023-01-23T02:29:00.131Z,2.90
2023-01-23T02:31:32.195Z,3.00
2023-01-23T02:34:00.175Z,3.00
2023-01-23T02:36:33.974Z,2.90
2023-01-23T02:39:07.050Z,3.00
2023-01-23T02:41:38.896Z,2.90
2023-01-23T02:44:29.338Z,3.00
2023-01-23T02:47:03.788Z,3.00
2023-01-23T02:49:31.346Z,3.00
2023-01-23T02:51:58.140Z,3.00
2023-01-23T02:54:25.383Z,3.10
2023-01-23T02:56:52.274Z,3.00
2023-01-23T02:59:40.377Z,3.00
2023-01-23T03:02:08.258Z,3.00
2023-01-23T03:04:35.180Z,3.00
2023-01-23T03:07:02.049Z,3.00
2023-01-23T03:09:29.129Z,3.00
2023-01-23T03:11:56.498Z,3.00
2023-01-23T03:14:24.363Z,3.00
2023-01-23T03:16:54.033Z,3.00
2023-01-23T03:19:27.925Z,3.00
2023-01-23T03:21:55.125Z,3.10
2023-01-23T03:24:23.116Z,3.00
2023-01-23T03:26:51.208Z,3.10
2023-01-23T03:29:44.135Z,3.00
2023-01-23T03:32:14.927Z,3.00
2023-01-23T03:34:42.944Z,3.00
2023-01-23T03:37:17.393Z,2.90
2023-01-23T03:40:04.672Z,3.00
2023-01-23T03:42:35.649Z,2.90
2023-01-23T03:45:05.956Z,2.90
2023-01-23T03:47:35.948Z,2.90
2023-01-23T03:50:02.930Z,2.90
2023-01-23T03:52:37.762Z,2.90
2023-01-23T03:55:05.523Z,2.90
2023-01-23T03:57:32.759Z,2.90
2023-01-23T04:00:08.860Z,2.90
2023-01-23T04:02:47.582Z,3.00
2023-01-23T04:05:17.300Z,3.00
2023-01-23T04:07:46.233Z,3.00
2023-01-23T04:10:13.810Z,3.00
2023-01-23T04:12:44.524Z,3.00
2023-01-23T04:15:11.907Z,3.00
2023-01-23T04:17:42.075Z,3.10
2023-01-23T04:20:11.081Z,3.00
2023-01-23T04:22:38.446Z,3.00
2023-01-23T04:25:06.728Z,2.90
2023-01-23T04:27:33.704Z,3.00
2023-01-23T04:30:01.200Z,3.00
2023-01-23T04:32:28.003Z,3.00
2023-01-23T04:34:54.814Z,3.00
2023-01-23T04:37:21.634Z,3.10
2023-01-23T04:39:48.467Z,3.10
2023-01-23T04:42:15.292Z,3.10
2023-01-23T04:45:12.074Z,3.10
2023-01-23T04:47:47.709Z,3.10
2023-01-23T04:50:16.916Z,3.10
2023-01-23T04:52:46.212Z,3.10
2023-01-23T04:55:13.863Z,3.10
2023-01-23T04:57:41.211Z,3.10
2023-01-23T05:00:29.372Z,3.10
2023-01-23T05:02:58.323Z,3.10
2023-01-23T05:05:26.093Z,3.10
2023-01-23T05:07:56.458Z,3.30
2023-01-23T05:10:23.661Z,3.20
2023-01-23T05:12:50.883Z,3.20
2023-01-23T05:15:17.967Z,3.20
2023-01-23T05:17:46.312Z,3.20
2023-01-23T05:20:14.044Z,3.20
2023-01-23T05:22:52.431Z,3.20
2023-01-23T05:25:27.738Z,3.20
2023-01-23T05:27:56.392Z,3.20
2023-01-23T05:30:24.342Z,3.20
2023-01-23T05:32:57.296Z,3.20
2023-01-23T05:35:24.247Z,3.20
2023-01-23T05:37:52.107Z,3.20
2023-01-23T05:40:22.924Z,3.30
2023-01-23T05:43:15.053Z,3.20
2023-01-23T05:46:01.603Z,3.30
2023-01-23T05:48:40.772Z,3.30
2023-01-23T05:51:10.580Z,3.30
2023-01-23T05:53:40.768Z,3.30
2023-01-23T05:56:09.022Z,3.20
2023-01-23T05:58:43.791Z,3.20
2023-01-23T06:01:21.658Z,3.20
2023-01-23T06:04:08.738Z,3.20
2023-01-23T06:06:46.586Z,3.30
2023-01-23T06:09:13.494Z,3.20
2023-01-23T06:11:40.271Z,3.40
2023-01-23T06:14:09.215Z,3.30
2023-01-23T06:16:36.452Z,3.30
2023-01-23T06:19:04.141Z,3.30
2023-01-23T06:21:33.811Z,3.30
2023-01-23T06:24:01.953Z,3.30
2023-01-23T06:26:28.934Z,3.30
2023-01-23T06:28:57.098Z,3.30
2023-01-23T06:31:24.029Z,3.30
2023-01-23T06:33:54.284Z,3.30
2023-01-23T06:36:29.153Z,3.30
2023-01-23T06:38:56.051Z,3.30
2023-01-23T06:41:28.063Z,3.30
2023-01-23T06:43:58.260Z,3.20
2023-01-23T06:46:27.274Z,3.20
2023-01-23T06:48:54.766Z,3.10
2023-01-23T06:51:22.276Z,3.10
2023-01-23T06:53:49.805Z,3.10
2023-01-23T06:56:17.130Z,3.10
2023-01-23T06:58:45.885Z,3.10
2023-01-23T07:01:22.622Z,3.20
2023-01-23T07:04:15.961Z,3.30
2023-01-23T07:06:44.077Z,3.30
2023-01-23T07:09:14.807Z,3.30
2023-01-23T07:11:45.817Z,3.30
2023-01-23T07:14:12.768Z,3.40
2023-01-23T07:16:41.371Z,3.40
2023-01-23T07:19:09.480Z,3.40
2023-01-23T07:21:38.804Z,3.40
2023-01-23T07:24:06.253Z,3.40
2023-01-23T07:26:33.173Z,3.40
2023-01-23T07:29:00.135Z,3.40
2023-01-23T07:31:26.912Z,3.40
2023-01-23T07:33:53.750Z,3.40
2023-01-23T07:36:20.424Z,3.30
2023-01-23T07:38:47.894Z,3.40
2023-01-23T07:41:14.697Z,3.30
2023-01-23T07:43:41.413Z,3.30
2023-01-23T07:46:09.575Z,3.30
2023-01-23T07:48:37.807Z,3.30
2023-01-23T07:51:05.136Z,3.30
2023-01-23T07:53:32.468Z,3.30
2023-01-23T07:55:59.308Z,3.30
2023-01-23T07:58:26.106Z,3.30
2023-01-23T08:00:52.780Z,3.30
2023-01-23T08:03:20.828Z,3.30
2023-01-23T08:05:50.786Z,3.30
2023-01-23T08:08:17.545Z,3.40
2023-01-23T08:10:44.532Z,3.40
2023-01-23T08:13:11.766Z,3.40
2023-01-23T08:15:38.903Z,3.40
2023-01-23T08:18:06.944Z,3.40
2023-01-23T08:20:33.896Z,3.40
2023-01-23T08:23:02.104Z,3.40
2023-01-23T08:25:29.085Z,3.50
2023-01-23T08:27:58.042Z,3.50
2023-01-23T08:30:27.043Z,3.60
2023-01-23T08:32:53.829Z,3.60
2023-01-23T08:35:20.523Z,3.60
2023-01-23T08:37:48.008Z,3.70
2023-01-23T08:40:14.853Z,3.70
2023-01-23T08:42:44.018Z,3.80
2023-01-23T08:45:10.893Z,3.80
2023-01-23T08:47:38.314Z,3.80
2023-01-23T08:50:06.240Z,3.90
2023-01-23T08:52:35.313Z,3.90
2023-01-23T08:55:02.186Z,3.90
2023-01-23T08:57:29.110Z,3.90
2023-01-23T08:59:59.018Z,3.80
2023-01-23T09:02:26.847Z,3.90
2023-01-23T09:04:53.653Z,3.80
2023-01-23T09:07:21.701Z,3.70
2023-01-23T09:09:48.351Z,3.80
2023-01-23T09:12:15.245Z,3.90
2023-01-23T09:14:42.083Z,3.90
2023-01-23T09:17:09.161Z,4.00
2023-01-23T09:19:35.961Z,4.10
2023-01-23T09:22:03.874Z,4.20
2023-01-23T09:24:31.176Z,4.20
2023-01-23T09:26:58.039Z,4.20
2023-01-23T09:29:24.701Z,4.20
2023-01-23T09:31:51.491Z,4.20
2023-01-23T09:34:18.563Z,4.20
2023-01-23T09:36:45.290Z,4.20
2023-01-23T09:39:12.634Z,4.30
2023-01-23T09:41:40.972Z,4.30
2023-01-23T09:44:36.738Z,4.30
2023-01-23T09:47:15.526Z,4.40
2023-01-23T09:49:45.252Z,4.60
2023-01-23T09:52:16.436Z,4.50
2023-01-23T09:54:49.883Z,4.50
2023-01-23T09:57:18.808Z,4.60
2023-01-23T10:00:00.800Z,4.60
2023-01-23T10:02:30.880Z,4.70
2023-01-23T10:05:01.603Z,5.00
2023-01-23T10:07:33.497Z,4.80
2023-01-23T10:10:38.228Z,4.90
2023-01-23T10:13:16.219Z,5.00
2023-01-23T10:16:12.700Z,4.90
2023-01-23T10:19:08.560Z,5.00
2023-01-23T10:22:01.792Z,5.00
2023-01-23T10:24:46.003Z,4.90
2023-01-23T10:27:32.386Z,4.90
2023-01-23T10:30:13.318Z,4.90
2023-01-23T10:33:17.389Z,4.80
2023-01-23T10:35:53.428Z,4.60
2023-01-23T10:38:33.255Z,4.50
2023-01-23T10:41:15.096Z,4.50
2023-01-23T10:43:43.532Z,4.50
2023-01-23T10:46:17.404Z,4.60
2023-01-23T10:48:52.226Z,4.70
2023-01-23T10:51:51.884Z,4.70
2023-01-23T10:54:32.882Z,4.80
2023-01-23T10:57:02.973Z,4.90
2023-01-23T11:00:01.277Z,4.90
2023-01-23T11:02:29.624Z,4.90
2023-01-23T11:04:56.838Z,5.00
2023-01-23T11:07:24.941Z,5.00
2023-01-23T11:10:09.704Z,5.00
2023-01-23T11:12:51.664Z,4.90
2023-01-23T11:15:24.774Z,4.80
2023-01-23T11:18:01.520Z,4.80
2023-01-23T11:20:40.812Z,4.90
2023-01-23T11:23:17.486Z,4.90
2023-01-23T11:25:46.939Z,4.90
2023-01-23T11:28:27.332Z,4.80
2023-01-23T11:31:15.470Z,4.80
2023-01-23T11:33:52.044Z,4.80
2023-01-23T11:36:18.885Z,4.70
2023-01-23T11:38:53.602Z,4.70
2023-01-23T11:41:30.189Z,4.80
2023-01-23T11:43:56.925Z,4.90
2023-01-23T11:46:53.650Z,5.00
2023-01-23T11:49:38.935Z,5.00
2023-01-23T11:52:43.454Z,5.10
2023-01-23T11:55:34.848Z,5.10
2023-01-23T11:58:49.067Z,5.10
2023-01-23T12:01:16.266Z,5.10
2023-01-23T12:04:03.825Z,5.10
2023-01-23T12:07:01.629Z,5.20
2023-01-23T12:09:43.702Z,5.10
2023-01-23T12:12:28.555Z,5.20
2023-01-23T12:15:18.369Z,5.10
2023-01-23T12:18:09.873Z,5.10
2023-01-23T12:21:03.132Z,5.10
2023-01-23T12:24:40.977Z,5.10
2023-01-23T12:27:26.728Z,5.00
2023-01-23T12:30:02.340Z,4.70
2023-01-23T12:32:43.922Z,4.80
2023-01-23T12:35:40.109Z,4.80
2023-01-23T12:38:23.320Z,4.90
2023-01-23T12:40:55.779Z,4.90
2023-01-23T12:43:43.558Z,5.00
2023-01-23T12:46:34.298Z,5.00
2023-01-23T12:49:36.497Z,5.00
2023-01-23T12:52:20.182Z,4.90
2023-01-23T12:54:55.920Z,4.90
2023-01-23T12:57:52.712Z,4.90
2023-01-23T13:00:47.602Z,4.90
2023-01-23T13:03:37.512Z,4.90
2023-01-23T13:06:44.867Z,5.00
2023-01-23T13:09:31.687Z,4.70
2023-01-23T13:12:01.745Z,4.80
2023-01-23T13:14:43.396Z,4.80
2023-01-23T13:17:32.263Z,4.90
2023-01-23T13:20:46.314Z,5.00
2023-01-23T13:23:33.211Z,5.00
2023-01-23T13:26:15.322Z,5.00
2023-01-23T13:28:56.576Z,5.10
2023-01-23T13:31:46.272Z,5.10
2023-01-23T13:34:16.219Z,5.10
2023-01-23T13:36:53.395Z,5.00
2023-01-23T13:39:26.584Z,5.00
2023-01-23T13:42:16.279Z,5.00
2023-01-23T13:45:18.079Z,5.10
2023-01-23T14:22:47.315Z,5.30
2023-01-23T14:25:18.184Z,5.20
2023-01-23T14:27:53.836Z,5.20
2023-01-23T14:30:26.483Z,5.10
2023-01-23T14:32:53.860Z,5.10
2023-01-23T14:35:29.793Z,5.10
2023-01-23T14:38:02.149Z,5.10
2023-01-23T14:40:40.333Z,5.10
2023-01-23T14:43:26.675Z,5.10
2023-01-23T14:46:06.931Z,5.10
2023-01-23T14:48:40.986Z,5.00
2023-01-23T14:51:21.097Z,5.00
2023-01-23T14:54:00.345Z,5.10
2023-01-23T14:56:35.905Z,5.10
2023-01-23T14:59:06.187Z,5.10
2023-01-23T15:01:35.776Z,5.10
2023-01-23T15:04:23.334Z,5.00
2023-01-23T15:06:55.456Z,5.00
2023-01-23T15:09:31.268Z,5.00
2023-01-23T15:12:11.634Z,5.00
2023-01-23T15:14:39.815Z,5.00
2023-01-23T15:17:14.628Z,5.00
2023-01-23T15:19:42.593Z,5.10
2023-01-23T15:22:33.538Z,5.10
2023-01-23T15:25:27.734Z,5.10
2023-01-23T15:27:54.516Z,5.00
2023-01-23T15:30:29.696Z,5.00
2023-01-23T15:32:58.962Z,5.10
2023-01-23T15:35:28.632Z,5.10
2023-01-23T15:38:04.555Z,5.10
2023-01-23T15:40:34.982Z,4.90
2023-01-23T15:43:05.595Z,4.90
2023-01-23T15:45:33.743Z,4.90
2023-01-23T15:48:01.635Z,4.90
2023-01-23T15:50:29.391Z,5.00
2023-01-23T15:52:58.771Z,5.00
2023-01-23T15:55:29.174Z,5.00
2023-01-23T15:57:59.519Z,5.00
2023-01-23T16:00:29.896Z,5.00
2023-01-23T16:02:58.755Z,5.00
2023-01-23T16:05:33.340Z,5.00
2023-01-23T16:08:03.375Z,5.00
2023-01-23T16:10:40.428Z,5.00
2023-01-23T16:13:07.764Z,5.00
2023-01-23T16:15:35.573Z,5.00
2023-01-23T16:18:07.084Z,4.90
2023-01-23T16:20:40.385Z,4.90
2023-01-23T16:23:18.674Z,4.90
2023-01-23T16:25:48.330Z,4.90
2023-01-23T16:28:18.017Z,4.90
2023-01-23T16:30:47.248Z,4.90
2023-01-23T16:33:15.408Z,4.90
2023-01-23T16:35:43.669Z,4.90
2023-01-23T16:38:22.468Z,4.90
2023-01-23T16:40:52.932Z,4.90
2023-01-23T16:43:22.166Z,4.90
2023-01-23T16:45:49.099Z,4.90
2023-01-23T16:48:26.341Z,4.90
2023-01-23T16:50:58.493Z,5.00
2023-01-23T16:53:46.935Z,5.00
2023-01-23T16:56:22.433Z,4.90
2023-01-23T16:58:50.069Z,4.90
2023-01-23T17:01:20.430Z,4.80
2023-01-23T17:03:57.452Z,4.70
2023-01-23T17:06:24.298Z,4.60
2023-01-23T17:08:53.376Z,4.60
2023-01-23T17:11:24.794Z,4.60
2023-01-23T17:13:58.620Z,4.60
2023-01-23T17:16:28.544Z,4.70
2023-01-23T17:18:58.523Z,4.60
2023-01-23T17:21:30.389Z,4.60
2023-01-23T17:23:57.117Z,4.60
2023-01-23T17:26:23.876Z,4.60
2023-01-23T17:28:50.859Z,4.60
2023-01-23T17:31:22.661Z,4.60
2023-01-23T17:33:52.509Z,4.60
2023-01-23T17:36:19.796Z,4.60
2023-01-23T17:38:46.711Z,4.70
2023-01-23T17:41:20.291Z,4.60
2023-01-23T17:43:48.358Z,4.60
2023-01-23T17:46:30.333Z,4.60
2023-01-23T17:48:57.395Z,4.60
2023-01-23T17:51:25.354Z,4.50
2023-01-23T17:53:52.555Z,4.50
2023-01-23T17:56:19.313Z,4.50
2023-01-23T17:58:46.276Z,4.50
2023-01-23T18:01:22.365Z,4.50
2023-01-23T18:03:53.771Z,4.60
2023-01-23T18:06:22.418Z,4.60
2023-01-23T18:08:49.272Z,4.60
2023-01-23T18:11:24.050Z,4.60
2023-01-23T18:14:02.389Z,4.40
2023-01-23T18:16:39.736Z,4.50
2023-01-23T18:19:27.403Z,4.50
2023-01-23T18:21:58.892Z,4.50
2023-01-23T18:24:30.042Z,4.50
2023-01-23T18:27:22.691Z,4.40
2023-01-23T18:30:08.141Z,4.40
2023-01-23T18:32:42.987Z,4.40
2023-01-23T18:35:36.068Z,4.40
2023-01-23T18:38:17.542Z,4.30
2023-01-23T18:41:12.226Z,4.30
2023-01-23T18:43:51.975Z,4.30
2023-01-23T18:46:20.792Z,4.30
2023-01-23T18:48:49.381Z,4.30
2023-01-23T18:51:42.042Z,4.30
2023-01-23T18:54:20.052Z,4.30
2023-01-23T18:57:04.801Z,4.30
2023-01-23T18:59:55.097Z,4.40
2023-01-23T19:02:40.926Z,4.40
2023-01-23T19:05:16.568Z,4.40
2023-01-23T19:07:44.973Z,4.40
2023-01-23T19:10:20.538Z,4.40
2023-01-23T19:13:36.586Z,4.40
2023-01-23T19:16:31.360Z,4.40
2023-01-23T19:19:23.564Z,4.30
2023-01-23T19:21:53.958Z,4.30
2023-01-23T19:24:26.589Z,4.30
2023-01-23T19:26:54.772Z,4.30
2023-01-23T19:29:24.838Z,4.40
2023-01-23T19:32:04.084Z,4.30
2023-01-23T19:34:33.138Z,4.40
2023-01-23T19:37:03.150Z,4.30
2023-01-23T19:39:30.667Z,4.30
2023-01-23T19:41:58.821Z,4.30
2023-01-23T19:44:28.601Z,4.40
2023-01-23T19:46:56.516Z,4.40
2023-01-23T19:49:24.980Z,4.40
2023-01-23T19:51:54.841Z,4.40
2023-01-23T19:54:24.072Z,4.40
2023-01-23T19:56:51.342Z,4.40
2023-01-23T19:59:18.430Z,4.40
2023-01-23T20:01:49.376Z,4.40
2023-01-23T20:04:18.379Z,4.40
2023-01-23T20:06:45.567Z,4.50
2023-01-23T20:09:14.533Z,4.40
2023-01-23T20:11:42.262Z,4.40
2023-01-23T20:14:09.048Z,4.50
2023-01-23T20:16:40.311Z,4.50
2023-01-23T20:19:07.614Z,4.40
2023-01-23T20:21:38.757Z,4.40
2023-01-23T20:24:08.186Z,4.40
2023-01-23T20:26:35.386Z,4.40
2023-01-23T20:29:03.759Z,4.40
2023-01-23T20:31:31.299Z,4.40
2023-01-23T20:33:58.265Z,4.40
2023-01-23T20:36:25.117Z,4.40
2023-01-23T20:41:43.735Z,4.40
2023-01-23T20:44:11.544Z,4.40
2023-01-23T20:46:41.237Z,4.40
2023-01-23T20:49:12.936Z,4.40
2023-01-23T20:51:39.799Z,4.40
2023-01-23T20:54:06.622Z,4.40
2023-01-23T20:56:33.403Z,4.40
2023-01-23T20:59:18.489Z,4.50
2023-01-23T21:02:04.787Z,4.40
2023-01-23T21:04:34.370Z,4.40
2023-01-23T21:07:02.013Z,4.40
2023-01-23T21:09:31.646Z,4.40
2023-01-23T21:11:58.676Z,4.30
2023-01-23T21:14:27.669Z,4.30
2023-01-23T21:16:56.232Z,4.30
2023-01-23T21:19:24.045Z,4.20
2023-01-23T21:21:50.899Z,4.20
2023-01-23T21:24:18.640Z,4.20
2023-01-23T21:26:45.427Z,4.20
2023-01-23T21:29:13.098Z,4.20
2023-01-23T21:31:42.734Z,4.20
2023-01-23T21:34:13.353Z,4.30
2023-01-23T21:36:41.941Z,4.20
2023-01-23T21:39:10.542Z,4.20
2023-01-23T21:41:37.449Z,4.10
2023-01-23T21:44:06.017Z,4.20
2023-01-23T21:46:35.706Z,4.20
2023-01-23T21:49:02.746Z,4.20
2023-01-23T21:51:32.189Z,4.30
2023-01-23T21:53:59.073Z,4.30
2023-01-23T21:56:26.496Z,4.30
2023-01-23T21:58:53.951Z,4.40
2023-01-23T22:01:32.689Z,4.30
2023-01-23T22:04:09.468Z,4.30
2023-01-23T22:06:38.403Z,4.30
2023-01-23T22:09:07.741Z,4.30
2023-01-23T22:11:35.109Z,4.10
2023-01-23T22:14:02.123Z,4.10
2023-01-23T22:16:47.038Z,4.10
2023-01-23T22:19:16.532Z,4.10
2023-01-23T22:21:46.110Z,4.10
2023-01-23T22:24:13.015Z,4.20
2023-01-23T22:26:39.896Z,4.10
2023-01-23T22:29:08.413Z,4.10
2023-01-23T22:31:38.555Z,4.10
2023-01-23T22:34:06.454Z,4.00
2023-01-23T22:36:33.221Z,4.00
2023-01-23T22:39:00.106Z,4.00
2023-01-23T22:41:28.422Z,4.00
2023-01-23T22:43:56.593Z,4.00
2023-01-23T22:46:25.978Z,4.10
2023-01-23T22:48:53.634Z,4.10
2023-01-23T22:51:24.924Z,4.10
2023-01-23T22:53:53.441Z,4.10
2023-01-23T22:56:21.195Z,4.10
2023-01-23T22:58:54.777Z,4.10
2023-01-23T23:01:23.556Z,4.10
2023-01-23T23:03:51.040Z,4.00
2023-01-23T23:06:18.718Z,4.10
2023-01-23T23:08:47.890Z,4.10
2023-01-23T23:11:20.352Z,4.10
2023-01-23T23:13:51.490Z,4.10
2023-01-23T23:16:28.633Z,4.20
2023-01-23T23:18:57.320Z,4.10
2023-01-23T23:21:28.203Z,4.10
2023-01-23T23:23:59.672Z,4.10
2023-01-23T23:26:31.239Z,4.10
2023-01-23T23:29:00.395Z,4.20
2023-01-23T23:31:27.714Z,4.10
2023-01-23T23:33:55.978Z,4.10
2023-01-23T23:36:23.341Z,4.10
2023-01-23T23:38:50.164Z,4.20
2023-01-23T23:41:17.732Z,4.10
2023-01-23T23:43:44.923Z,4.00
2023-01-23T23:46:14.204Z,4.00
2023-01-23T23:48:41.709Z,4.10
2023-01-23T23:51:12.995Z,4.00
2023-01-23T23:53:39.933Z,4.00
2023-01-23T23:56:08.478Z,4.00
2023-01-23T23:58:39.054Z,4.00
